Time;durP1;ratioP1;P1;durP2;ratioP2;P2;SDS_P1;SDS_P2;PMS_P1;PMS_P2;Temp;Humidity;BMP_temperature;BMP_pressure;BME280_temperature;BME280_humidity;BME280_pressure;Samples;Min_cycle;Max_cycle;Signal;HPM_P1;HPM_P2
2023/08/24 00:00:17;;;;;;;5.90;3.40;;;;;;;;;;5012571;28;20038;-79
2023/08/24 00:02:43;;;;;;;11.15;3.38;;;;;;;;;;5016076;28;20049;-79
2023/08/24 00:05:10;;;;;;;6.13;3.65;;;;;;;;;;4981928;28;20049;-79
2023/08/24 00:07:37;;;;;;;6.10;3.05;;;;;;;;;;4998089;28;20034;-79
2023/08/24 00:10:04;;;;;;;5.22;3.25;;;;;;;;;;5011982;28;20046;-78
2023/08/24 00:12:30;;;;;;;5.18;3.47;;;;;;;;;;5017135;28;20114;-80
2023/08/24 00:14:57;;;;;;;5.65;3.35;;;;;;;;;;4998899;28;20053;-79
2023/08/24 00:17:24;;;;;;;5.90;3.33;;;;;;;;;;4998168;28;20056;-80
2023/08/24 00:19:51;;;;;;;6.93;3.22;;;;;;;;;;4998417;28;20397;-79
2023/08/24 00:22:18;;;;;;;7.18;4.07;;;;;;;;;;4981578;28;20069;-78
2023/08/24 00:24:47;;;;;;;6.97;3.97;;;;;;;;;;4998103;28;20535;-80
2023/08/24 00:27:13;;;;;;;6.13;4.05;;;;;;;;;;4998623;28;20121;-80
2023/08/24 00:29:40;;;;;;;7.30;3.83;;;;;;;;;;4997939;28;20052;-79
2023/08/24 00:32:08;;;;;;;5.60;3.97;;;;;;;;;;4980987;28;20065;-79
2023/08/24 00:34:34;;;;;;;5.45;4.15;;;;;;;;;;5007127;28;20100;-76
2023/08/24 00:37:01;;;;;;;5.60;3.90;;;;;;;;;;4997559;28;20046;-80
2023/08/24 00:39:29;;;;;;;6.97;3.92;;;;;;;;;;5004486;28;20042;-75
2023/08/24 00:41:56;;;;;;;6.60;3.72;;;;;;;;;;5015611;28;20046;-78
2023/08/24 00:44:23;;;;;;;4.45;3.58;;;;;;;;;;5014202;28;20054;-76
2023/08/24 00:46:49;;;;;;;6.07;3.75;;;;;;;;;;4997811;28;20065;-77
2023/08/24 00:49:20;;;;;;;6.65;4.00;;;;;;;;;;4993147;28;20053;-79
2023/08/24 00:51:49;;;;;;;6.57;3.80;;;;;;;;;;5023971;28;20517;-78
2023/08/24 00:54:16;;;;;;;5.70;3.40;;;;;;;;;;5042102;28;20201;-76
2023/08/24 00:56:43;;;;;;;9.65;3.45;;;;;;;;;;5014995;28;20037;-76
2023/08/24 00:59:10;;;;;;;10.63;3.58;;;;;;;;;;4998261;28;20050;-77
2023/08/24 01:01:37;;;;;;;5.10;3.20;;;;;;;;;;5015347;28;20045;-76
2023/08/24 01:04:04;;;;;;;6.47;3.40;;;;;;;;;;5028929;28;20060;-78
2023/08/24 01:06:31;;;;;;;6.82;3.58;;;;;;;;;;5016311;28;20038;-79
2023/08/24 01:08:58;;;;;;;9.43;3.90;;;;;;;;;;5012898;28;20066;-79
2023/08/24 01:11:28;;;;;;;5.70;3.80;;;;;;;;;;5012459;28;20048;-79
2023/08/24 01:14:01;;;;;;;6.80;3.78;;;;;;;;;;5011472;28;20411;-80
2023/08/24 01:16:29;;;;;;;5.55;3.10;;;;;;;;;;5012224;28;20048;-78
2023/08/24 01:18:59;;;;;;;5.43;3.85;;;;;;;;;;5013426;28;20049;-77
2023/08/24 01:21:26;;;;;;;6.38;3.60;;;;;;;;;;5019719;28;20045;-79
2023/08/24 01:23:53;;;;;;;5.13;3.40;;;;;;;;;;4994307;28;20553;-79
2023/08/24 01:26:20;;;;;;;5.70;3.55;;;;;;;;;;4979269;28;20391;-80
2023/08/24 01:28:47;;;;;;;6.43;3.97;;;;;;;;;;4998171;28;20049;-77
2023/08/24 01:31:15;;;;;;;7.32;4.50;;;;;;;;;;5008800;28;20038;-77
2023/08/24 01:33:43;;;;;;;8.00;4.45;;;;;;;;;;5011029;28;20030;-78
2023/08/24 01:36:11;;;;;;;11.68;5.10;;;;;;;;;;5025345;28;20108;-77
2023/08/24 01:38:37;;;;;;;7.78;4.53;;;;;;;;;;5022939;28;20042;-78
2023/08/24 01:41:23;;;;;;;6.22;4.43;;;;;;;;;;5012471;28;20065;-78
2023/08/24 01:43:52;;;;;;;11.43;4.72;;;;;;;;;;5010565;28;20042;-79
2023/08/24 01:46:20;;;;;;;9.57;4.45;;;;;;;;;;5011648;28;20053;-79
2023/08/24 01:48:48;;;;;;;5.32;3.85;;;;;;;;;;5011669;28;20038;-79
2023/08/24 01:51:15;;;;;;;5.53;3.85;;;;;;;;;;5011495;28;20042;-79
2023/08/24 01:53:43;;;;;;;6.82;3.70;;;;;;;;;;5011613;28;20053;-79
2023/08/24 01:56:11;;;;;;;7.53;3.40;;;;;;;;;;5009286;28;20527;-79
2023/08/24 01:58:38;;;;;;;5.10;3.63;;;;;;;;;;4995501;28;20515;-78
2023/08/24 02:01:05;;;;;;;8.48;4.45;;;;;;;;;;4994520;28;20050;-79
2023/08/24 02:03:32;;;;;;;8.07;4.22;;;;;;;;;;5010631;28;20041;-78
2023/08/24 02:05:59;;;;;;;9.05;4.15;;;;;;;;;;5016819;28;20125;-79
2023/08/24 02:08:29;;;;;;;7.32;4.32;;;;;;;;;;5011060;28;20038;-79
2023/08/24 02:10:58;;;;;;;6.65;4.45;;;;;;;;;;5011927;28;20046;-78
2023/08/24 02:13:25;;;;;;;8.32;4.30;;;;;;;;;;5013316;28;20125;-78
2023/08/24 02:16:00;;;;;;;6.50;4.10;;;;;;;;;;5023772;28;20070;-78
2023/08/24 02:18:27;;;;;;;6.25;4.40;;;;;;;;;;5009881;28;20615;-78
2023/08/24 02:20:53;;;;;;;14.18;4.60;;;;;;;;;;4978016;28;20042;-78
2023/08/24 02:23:20;;;;;;;5.15;3.95;;;;;;;;;;5017737;28;20107;-79
2023/08/24 02:25:47;;;;;;;7.00;4.13;;;;;;;;;;5010292;28;20137;-78
2023/08/24 02:28:14;;;;;;;8.32;4.72;;;;;;;;;;4977802;28;20122;-79
2023/08/24 02:30:45;;;;;;;6.50;4.50;;;;;;;;;;5010419;28;20073;-77
2023/08/24 02:33:12;;;;;;;8.82;4.50;;;;;;;;;;5011495;28;20034;-79
2023/08/24 02:35:39;;;;;;;8.00;4.65;;;;;;;;;;5010367;28;20074;-79
2023/08/24 02:38:06;;;;;;;8.35;4.55;;;;;;;;;;5010308;28;20061;-79
2023/08/24 02:40:32;;;;;;;9.43;5.05;;;;;;;;;;5011613;28;20104;-80
2023/08/24 02:43:01;;;;;;;9.98;5.15;;;;;;;;;;5011179;28;20069;-78
2023/08/24 02:45:28;;;;;;;12.05;4.95;;;;;;;;;;4993961;28;20393;-79
2023/08/24 02:47:55;;;;;;;8.07;4.60;;;;;;;;;;5013345;28;20316;-79
2023/08/24 02:50:21;;;;;;;6.68;4.63;;;;;;;;;;5011856;28;20903;-78
2023/08/24 02:52:48;;;;;;;7.20;4.85;;;;;;;;;;4993302;28;20501;-79
2023/08/24 02:55:17;;;;;;;7.38;4.68;;;;;;;;;;4999882;28;20105;-79
2023/08/24 02:57:43;;;;;;;7.78;4.90;;;;;;;;;;5003846;28;20046;-78
2023/08/24 03:00:13;;;;;;;9.60;5.10;;;;;;;;;;5024376;28;20034;-79
2023/08/24 03:02:40;;;;;;;8.02;4.95;;;;;;;;;;5011347;28;20073;-80
2023/08/24 03:05:07;;;;;;;10.52;5.00;;;;;;;;;;5011593;28;20492;-79
2023/08/24 03:07:34;;;;;;;6.20;4.63;;;;;;;;;;5017209;28;20504;-78
2023/08/24 03:10:01;;;;;;;7.30;4.53;;;;;;;;;;5011914;28;20046;-79
2023/08/24 03:12:27;;;;;;;8.13;4.68;;;;;;;;;;5010032;28;20049;-78
2023/08/24 03:14:54;;;;;;;6.70;4.40;;;;;;;;;;4994542;28;20057;-79
2023/08/24 03:17:24;;;;;;;6.50;4.40;;;;;;;;;;4999124;28;20054;-76
2023/08/24 03:19:51;;;;;;;7.80;4.70;;;;;;;;;;5013571;28;20041;-78
2023/08/24 03:22:17;;;;;;;7.28;4.53;;;;;;;;;;4995496;28;20041;-77
2023/08/24 03:24:44;;;;;;;8.77;4.57;;;;;;;;;;5010664;28;20046;-77
2023/08/24 03:27:10;;;;;;;7.13;4.85;;;;;;;;;;4993382;28;20487;-80
2023/08/24 03:29:37;;;;;;;6.68;4.72;;;;;;;;;;5023135;28;20074;-79
2023/08/24 03:32:04;;;;;;;5.68;4.22;;;;;;;;;;5023251;28;20665;-77
2023/08/24 03:34:31;;;;;;;6.20;4.47;;;;;;;;;;4999682;28;20057;-77
2023/08/24 03:36:58;;;;;;;6.03;4.28;;;;;;;;;;4998460;28;20039;-80
2023/08/24 03:39:24;;;;;;;8.27;4.78;;;;;;;;;;5006324;28;20112;-79
2023/08/24 03:41:51;;;;;;;9.65;5.25;;;;;;;;;;5018051;28;20053;-79
2023/08/24 03:44:18;;;;;;;6.50;4.43;;;;;;;;;;5009143;28;20050;-77
2023/08/24 03:46:47;;;;;;;9.18;4.82;;;;;;;;;;5022495;28;20073;-80
2023/08/24 03:49:18;;;;;;;7.53;4.72;;;;;;;;;;5008346;28;20046;-81
2023/08/24 03:51:45;;;;;;;8.15;5.25;;;;;;;;;;5011136;28;20105;-80
2023/08/24 03:54:11;;;;;;;6.55;4.82;;;;;;;;;;5025571;28;20046;-80
2023/08/24 03:56:39;;;;;;;8.82;5.10;;;;;;;;;;5011203;28;20042;-79
2023/08/24 03:59:05;;;;;;;10.32;4.78;;;;;;;;;;5008759;28;20045;-78
2023/08/24 04:01:32;;;;;;;7.95;4.97;;;;;;;;;;4993163;28;20049;-80
2023/08/24 04:03:59;;;;;;;6.65;4.82;;;;;;;;;;4994039;28;20587;-78
2023/08/24 04:06:28;;;;;;;10.13;5.47;;;;;;;;;;5009460;28;20046;-79
2023/08/24 04:08:55;;;;;;;11.15;5.32;;;;;;;;;;5004906;28;20560;-78
2023/08/24 04:11:22;;;;;;;7.47;5.07;;;;;;;;;;5005407;28;20050;-78
2023/08/24 04:13:49;;;;;;;9.77;5.95;;;;;;;;;;5014546;28;20061;-79
2023/08/24 04:16:17;;;;;;;8.02;5.93;;;;;;;;;;4991989;28;20042;-79
2023/08/24 04:18:44;;;;;;;10.65;5.50;;;;;;;;;;5008257;28;20050;-79
2023/08/24 04:21:11;;;;;;;9.07;6.20;;;;;;;;;;5027954;28;20105;-80
2023/08/24 04:23:37;;;;;;;8.10;6.05;;;;;;;;;;5013051;28;20649;-79
2023/08/24 04:26:05;;;;;;;10.90;6.38;;;;;;;;;;5022044;28;20429;-79
2023/08/24 04:28:31;;;;;;;14.07;6.28;;;;;;;;;;5007513;28;20124;-79
2023/08/24 04:30:58;;;;;;;9.70;5.90;;;;;;;;;;5014135;28;20464;-79
2023/08/24 04:33:25;;;;;;;10.07;6.28;;;;;;;;;;5010188;28;20046;-79
2023/08/24 04:35:52;;;;;;;8.90;6.57;;;;;;;;;;5012101;28;20104;-77
2023/08/24 04:38:19;;;;;;;9.13;5.78;;;;;;;;;;5010678;28;20038;-77
2023/08/24 04:40:48;;;;;;;10.07;6.95;;;;;;;;;;5008569;28;20045;-76
2023/08/24 04:43:15;;;;;;;10.73;6.00;;;;;;;;;;5011893;28;20118;-78
2023/08/24 04:45:41;;;;;;;10.02;6.45;;;;;;;;;;5003093;28;20046;-76
2023/08/24 04:48:08;;;;;;;8.82;5.82;;;;;;;;;;5009408;28;20049;-76
2023/08/24 04:50:35;;;;;;;9.98;6.38;;;;;;;;;;5027093;28;20072;-76
2023/08/24 04:53:02;;;;;;;9.57;6.47;;;;;;;;;;5001210;28;20046;-76
2023/08/24 04:55:28;;;;;;;10.65;6.65;;;;;;;;;;5001456;28;20052;-76
2023/08/24 04:57:55;;;;;;;13.77;6.68;;;;;;;;;;4999003;28;20049;-76
2023/08/24 05:00:22;;;;;;;11.30;6.60;;;;;;;;;;5002762;28;20573;-77
2023/08/24 05:02:49;;;;;;;10.35;6.47;;;;;;;;;;5001253;28;20112;-76
2023/08/24 05:05:17;;;;;;;12.15;6.18;;;;;;;;;;5007049;28;20042;-77
2023/08/24 05:07:43;;;;;;;9.73;5.85;;;;;;;;;;5000015;28;20096;-76
2023/08/24 05:10:10;;;;;;;13.23;5.95;;;;;;;;;;5000278;28;20507;-78
2023/08/24 05:12:40;;;;;;;9.77;6.63;;;;;;;;;;5002349;28;20456;-78
2023/08/24 05:15:07;;;;;;;9.82;6.43;;;;;;;;;;5010313;28;20065;-78
2023/08/24 05:17:34;;;;;;;12.93;6.18;;;;;;;;;;5009847;28;20052;-77
2023/08/24 05:20:01;;;;;;;9.57;6.50;;;;;;;;;;4993955;28;20108;-77
2023/08/24 05:22:29;;;;;;;9.10;6.50;;;;;;;;;;5011221;28;20397;-77
2023/08/24 05:24:55;;;;;;;11.13;6.35;;;;;;;;;;5009983;28;20589;-77
2023/08/24 05:27:22;;;;;;;9.52;7.00;;;;;;;;;;5015452;28;20113;-76
2023/08/24 05:29:48;;;;;;;9.32;6.10;;;;;;;;;;4996309;28;20042;-77
2023/08/24 05:32:15;;;;;;;8.60;6.05;;;;;;;;;;4994451;28;20053;-77
2023/08/24 05:34:41;;;;;;;9.40;6.43;;;;;;;;;;5010748;28;20038;-78
2023/08/24 05:37:11;;;;;;;13.75;6.40;;;;;;;;;;5025622;28;20054;-79
2023/08/24 05:39:38;;;;;;;10.10;5.85;;;;;;;;;;5011266;28;20688;-78
2023/08/24 05:42:05;;;;;;;9.25;6.10;;;;;;;;;;4994940;28;20045;-79
2023/08/24 05:44:32;;;;;;;11.18;6.32;;;;;;;;;;5007111;28;20046;-78
2023/08/24 05:46:58;;;;;;;10.63;6.65;;;;;;;;;;5011171;28;20054;-77
2023/08/24 05:49:25;;;;;;;14.43;6.75;;;;;;;;;;5022632;28;20038;-77
2023/08/24 05:51:52;;;;;;;11.00;6.68;;;;;;;;;;5033367;28;20053;-77
2023/08/24 05:54:18;;;;;;;10.38;5.90;;;;;;;;;;5015998;28;20042;-76
2023/08/24 05:56:48;;;;;;;9.73;6.30;;;;;;;;;;5015468;28;20030;-77
2023/08/24 05:59:14;;;;;;;9.80;5.80;;;;;;;;;;5030916;28;20029;-76
2023/08/24 06:01:41;;;;;;;9.57;6.03;;;;;;;;;;5028564;28;20049;-77
2023/08/24 06:04:08;;;;;;;11.68;6.50;;;;;;;;;;5032489;28;20029;-77
2023/08/24 06:06:35;;;;;;;9.18;5.88;;;;;;;;;;5028936;28;20073;-78
2023/08/24 06:09:05;;;;;;;14.07;6.60;;;;;;;;;;5026033;28;20045;-79
2023/08/24 06:11:36;;;;;;;14.77;5.45;;;;;;;;;;5010960;28;20099;-78
2023/08/24 06:14:02;;;;;;;8.75;5.75;;;;;;;;;;5010510;28;20056;-78
2023/08/24 06:16:29;;;;;;;14.55;6.00;;;;;;;;;;5010570;28;20420;-78
2023/08/24 06:18:56;;;;;;;9.70;5.95;;;;;;;;;;5009050;28;20045;-78
2023/08/24 06:21:23;;;;;;;9.57;6.32;;;;;;;;;;5010987;28;20072;-78
2023/08/24 06:23:50;;;;;;;12.02;6.70;;;;;;;;;;5010624;28;20617;-78
2023/08/24 06:26:17;;;;;;;11.80;7.00;;;;;;;;;;5011704;28;20052;-78
2023/08/24 06:28:44;;;;;;;14.07;6.20;;;;;;;;;;5014965;28;20165;-79
2023/08/24 06:31:11;;;;;;;12.88;6.82;;;;;;;;;;5011040;28;20046;-79
2023/08/24 06:33:38;;;;;;;11.98;5.72;;;;;;;;;;5013101;28;20041;-79
2023/08/24 06:36:05;;;;;;;11.15;6.32;;;;;;;;;;5009456;28;20049;-79
2023/08/24 06:38:33;;;;;;;9.07;5.00;;;;;;;;;;5002015;28;20046;-79
2023/08/24 06:41:00;;;;;;;12.60;5.28;;;;;;;;;;5012162;28;20137;-79
2023/08/24 06:43:27;;;;;;;11.70;5.22;;;;;;;;;;4993976;28;20045;-78
2023/08/24 06:45:54;;;;;;;10.20;4.57;;;;;;;;;;4994879;28;20061;-78
2023/08/24 06:48:21;;;;;;;10.05;5.25;;;;;;;;;;5021445;28;20303;-79
2023/08/24 06:50:48;;;;;;;8.13;4.40;;;;;;;;;;5010414;28;20151;-79
2023/08/24 06:53:15;;;;;;;9.10;5.03;;;;;;;;;;5011005;28;20056;-79
2023/08/24 06:55:41;;;;;;;14.23;5.05;;;;;;;;;;5008825;28;20100;-79
2023/08/24 06:58:08;;;;;;;11.95;5.60;;;;;;;;;;5010405;28;20076;-78
2023/08/24 07:00:35;;;;;;;13.50;5.10;;;;;;;;;;5024107;28;20497;-78
2023/08/24 07:03:02;;;;;;;10.10;5.07;;;;;;;;;;5008041;28;20053;-77
2023/08/24 07:05:29;;;;;;;11.85;5.18;;;;;;;;;;4994397;28;20042;-77
2023/08/24 07:07:56;;;;;;;13.40;4.43;;;;;;;;;;4996556;28;20037;-78
2023/08/24 07:10:23;;;;;;;10.93;4.25;;;;;;;;;;5001391;28;20049;-77
2023/08/24 07:12:50;;;;;;;8.68;3.90;;;;;;;;;;5025603;28;20045;-77
2023/08/24 07:15:17;;;;;;;8.32;4.07;;;;;;;;;;5010293;28;20579;-78
2023/08/24 07:17:44;;;;;;;12.02;4.22;;;;;;;;;;5007118;28;20042;-77
2023/08/24 07:20:11;;;;;;;8.82;3.45;;;;;;;;;;5007880;28;20045;-78
2023/08/24 07:22:38;;;;;;;5.95;3.47;;;;;;;;;;5009228;28;20050;-77
2023/08/24 07:25:05;;;;;;;9.40;3.28;;;;;;;;;;5008709;28;20155;-78
2023/08/24 07:27:33;;;;;;;5.57;2.95;;;;;;;;;;5010579;28;20128;-78
2023/08/24 07:30:00;;;;;;;6.05;2.92;;;;;;;;;;5014530;28;20492;-78
2023/08/24 07:32:27;;;;;;;5.97;2.95;;;;;;;;;;5009901;28;20459;-77
2023/08/24 07:34:54;;;;;;;9.43;3.10;;;;;;;;;;5009659;28;20042;-76
2023/08/24 07:37:20;;;;;;;5.97;3.17;;;;;;;;;;5006308;28;20416;-77
2023/08/24 07:39:47;;;;;;;10.90;2.72;;;;;;;;;;5000765;28;20038;-78
2023/08/24 07:42:14;;;;;;;7.63;3.95;;;;;;;;;;5006949;28;20475;-78
2023/08/24 07:44:41;;;;;;;10.50;2.97;;;;;;;;;;4997065;28;20100;-77
2023/08/24 07:47:07;;;;;;;9.95;2.65;;;;;;;;;;5005212;28;20042;-78
2023/08/24 07:49:34;;;;;;;5.45;2.58;;;;;;;;;;5001486;28;20073;-77
2023/08/24 07:52:01;;;;;;;5.07;2.35;;;;;;;;;;5011253;28;20069;-77
2023/08/24 07:54:27;;;;;;;10.40;2.50;;;;;;;;;;4992621;28;20053;-76
2023/08/24 07:56:54;;;;;;;3.95;2.15;;;;;;;;;;5014402;28;20062;-77
2023/08/24 07:59:21;;;;;;;8.10;2.38;;;;;;;;;;5011663;28;20057;-77
2023/08/24 08:01:47;;;;;;;5.15;2.28;;;;;;;;;;5011250;28;20534;-77
2023/08/24 08:04:14;;;;;;;4.88;1.98;;;;;;;;;;5019355;28;20041;-79
2023/08/24 08:06:44;;;;;;;3.65;2.00;;;;;;;;;;5019331;28;20116;-78
2023/08/24 08:09:11;;;;;;;5.40;2.30;;;;;;;;;;5017657;28;20053;-77
2023/08/24 08:11:37;;;;;;;12.75;2.15;;;;;;;;;;5013703;28;20389;-79
2023/08/24 08:14:04;;;;;;;3.38;1.95;;;;;;;;;;5016167;28;20049;-78
2023/08/24 08:16:31;;;;;;;6.30;2.25;;;;;;;;;;5013448;28;20050;-79
2023/08/24 08:18:57;;;;;;;10.38;2.25;;;;;;;;;;5014180;28;20156;-79
2023/08/24 08:21:24;;;;;;;4.88;2.13;;;;;;;;;;5014022;28;20042;-77
2023/08/24 08:23:51;;;;;;;7.47;1.70;;;;;;;;;;5014830;28;20726;-77
2023/08/24 08:26:18;;;;;;;3.58;1.90;;;;;;;;;;5012404;28;20117;-77
2023/08/24 08:28:45;;;;;;;5.38;2.00;;;;;;;;;;5013520;28;20125;-76
2023/08/24 08:31:11;;;;;;;4.55;2.17;;;;;;;;;;5016426;28;20049;-78
2023/08/24 08:33:38;;;;;;;2.85;1.90;;;;;;;;;;5018394;28;20102;-78
2023/08/24 08:36:05;;;;;;;4.03;1.90;;;;;;;;;;5013867;28;20499;-77
2023/08/24 08:38:31;;;;;;;4.15;1.73;;;;;;;;;;5014147;28;20037;-77
2023/08/24 08:41:07;;;;;;;3.75;2.13;;;;;;;;;;5013714;28;20065;-78
2023/08/24 08:43:34;;;;;;;6.28;2.00;;;;;;;;;;4995747;28;20053;-77
2023/08/24 08:46:00;;;;;;;4.68;1.95;;;;;;;;;;5014971;28;20105;-77
2023/08/24 08:48:28;;;;;;;2.95;1.88;;;;;;;;;;5013016;28;20045;-78
2023/08/24 08:50:57;;;;;;;4.70;2.00;;;;;;;;;;5011880;28;20133;-78
2023/08/24 08:53:24;;;;;;;6.00;2.05;;;;;;;;;;5012632;28;20054;-78
2023/08/24 08:55:51;;;;;;;7.22;2.40;;;;;;;;;;5010257;28;20096;-79
2023/08/24 08:58:19;;;;;;;5.88;2.00;;;;;;;;;;5011657;28;20504;-78
2023/08/24 09:00:47;;;;;;;3.25;1.90;;;;;;;;;;5011237;28;20038;-79
2023/08/24 09:03:17;;;;;;;4.75;1.95;;;;;;;;;;4994741;28;20041;-78
2023/08/24 09:05:46;;;;;;;3.67;1.85;;;;;;;;;;5011777;28;20132;-78
2023/08/24 09:08:13;;;;;;;4.38;1.88;;;;;;;;;;5011757;28;20049;-79
2023/08/24 09:10:40;;;;;;;4.32;1.88;;;;;;;;;;4995122;28;20084;-77
2023/08/24 09:13:07;;;;;;;2.70;1.73;;;;;;;;;;5012192;28;20605;-79
2023/08/24 09:15:36;;;;;;;4.72;1.80;;;;;;;;;;5024661;28;20456;-78
2023/08/24 09:18:03;;;;;;;4.25;2.00;;;;;;;;;;5008616;28;20577;-79
2023/08/24 09:20:30;;;;;;;3.47;1.90;;;;;;;;;;5010401;28;20494;-78
2023/08/24 09:22:57;;;;;;;3.25;1.98;;;;;;;;;;5011536;28;20129;-79
2023/08/24 09:25:24;;;;;;;3.40;2.08;;;;;;;;;;5010208;28;20050;-79
2023/08/24 09:28:00;;;;;;;3.28;1.80;;;;;;;;;;5011254;28;20682;-78
2023/08/24 09:30:37;;;;;;;3.60;1.85;;;;;;;;;;5001855;28;20049;-78
2023/08/24 09:33:04;;;;;;;3.53;1.92;;;;;;;;;;5011580;28;20064;-77
2023/08/24 09:35:34;;;;;;;3.85;1.90;;;;;;;;;;5009670;28;20042;-78
2023/08/24 09:38:03;;;;;;;4.22;1.60;;;;;;;;;;5012733;28;20115;-77
2023/08/24 09:40:30;;;;;;;3.38;1.63;;;;;;;;;;4994103;28;20456;-77
2023/08/24 09:42:56;;;;;;;2.55;1.80;;;;;;;;;;5022100;28;20038;-76
2023/08/24 09:45:23;;;;;;;4.15;2.00;;;;;;;;;;5018369;28;20057;-78
2023/08/24 09:47:51;;;;;;;2.38;1.70;;;;;;;;;;5012859;28;20054;-78
2023/08/24 09:50:18;;;;;;;3.78;2.00;;;;;;;;;;5011459;28;20042;-77
2023/08/24 09:52:47;;;;;;;6.15;2.13;;;;;;;;;;4994312;28;20096;-79
2023/08/24 09:55:17;;;;;;;3.80;1.90;;;;;;;;;;5010315;28;20691;-77
2023/08/24 09:57:44;;;;;;;5.75;1.80;;;;;;;;;;4993710;28;20038;-78
2023/08/24 10:00:12;;;;;;;2.70;1.50;;;;;;;;;;5011497;28;20049;-78
2023/08/24 10:02:44;;;;;;;3.25;1.73;;;;;;;;;;5018340;28;20069;-76
2023/08/24 10:05:17;;;;;;;2.30;1.85;;;;;;;;;;5012175;28;20049;-79
2023/08/24 10:08:02;;;;;;;4.38;1.98;;;;;;;;;;5009294;28;20398;-75
2023/08/24 10:10:31;;;;;;;3.60;2.20;;;;;;;;;;5007477;28;20058;-77
2023/08/24 10:13:00;;;;;;;4.13;2.00;;;;;;;;;;5007490;28;20050;-77
2023/08/24 10:15:27;;;;;;;3.90;1.67;;;;;;;;;;5007405;28;20046;-77
2023/08/24 10:17:55;;;;;;;4.63;1.63;;;;;;;;;;5005526;28;20046;-77
2023/08/24 10:20:23;;;;;;;4.25;2.10;;;;;;;;;;5005809;28;20046;-78
2023/08/24 10:22:50;;;;;;;4.20;2.10;;;;;;;;;;4989805;28;20042;-78
2023/08/24 10:25:18;;;;;;;6.03;1.90;;;;;;;;;;5007307;28;20092;-76
2023/08/24 10:27:47;;;;;;;4.25;1.90;;;;;;;;;;5006874;28;20049;-76
2023/08/24 10:30:15;;;;;;;4.00;2.17;;;;;;;;;;5005631;28;21152;-77
2023/08/24 10:32:43;;;;;;;5.90;2.25;;;;;;;;;;5007182;28;20048;-76
2023/08/24 10:35:09;;;;;;;4.07;2.00;;;;;;;;;;5007467;28;20080;-77
2023/08/24 10:37:39;;;;;;;6.30;2.10;;;;;;;;;;5007311;28;20435;-75
2023/08/24 10:40:07;;;;;;;6.53;2.47;;;;;;;;;;5008029;28;20042;-77
2023/08/24 10:42:45;;;;;;;3.97;2.28;;;;;;;;;;5012020;28;20240;-76
2023/08/24 10:45:15;;;;;;;7.93;2.33;;;;;;;;;;5027936;28;20049;-77
2023/08/24 10:47:45;;;;;;;7.53;2.47;;;;;;;;;;5028948;28;20057;-76
2023/08/24 10:50:13;;;;;;;6.13;2.05;;;;;;;;;;5026565;28;20068;-77
2023/08/24 10:52:42;;;;;;;3.60;2.03;;;;;;;;;;5020981;28;20060;-76
2023/08/24 10:55:24;;;;;;;3.50;1.83;;;;;;;;;;5019364;28;20052;-76
2023/08/24 10:57:58;;;;;;;5.35;1.92;;;;;;;;;;5018671;28;20512;-77
2023/08/24 11:00:28;;;;;;;8.88;2.60;;;;;;;;;;5005812;28;20840;-77
2023/08/24 11:02:55;;;;;;;4.75;1.98;;;;;;;;;;5010275;28;20062;-78
2023/08/24 11:05:30;;;;;;;4.28;1.95;;;;;;;;;;5024558;28;20207;-77
2023/08/24 11:07:57;;;;;;;5.28;2.22;;;;;;;;;;5000161;28;20535;-79
2023/08/24 11:10:25;;;;;;;3.33;2.20;;;;;;;;;;4993917;28;20046;-79
2023/08/24 11:13:04;;;;;;;5.72;2.15;;;;;;;;;;4995312;28;20042;-78
2023/08/24 11:15:32;;;;;;;5.68;2.10;;;;;;;;;;5013513;28;20467;-78
2023/08/24 11:18:13;;;;;;;3.67;2.15;;;;;;;;;;5015441;28;20046;-79
2023/08/24 11:20:42;;;;;;;2.75;1.90;;;;;;;;;;4988491;28;20050;-78
2023/08/24 11:23:09;;;;;;;4.15;2.13;;;;;;;;;;4995239;28;20057;-79
2023/08/24 11:25:36;;;;;;;3.08;2.00;;;;;;;;;;4979636;28;20041;-77
2023/08/24 11:28:03;;;;;;;3.88;2.08;;;;;;;;;;5009964;28;20072;-79
2023/08/24 11:30:30;;;;;;;5.05;1.90;;;;;;;;;;5013920;28;20612;-77
2023/08/24 11:32:57;;;;;;;3.10;2.13;;;;;;;;;;4997266;28;20566;-78
2023/08/24 11:35:24;;;;;;;3.47;2.00;;;;;;;;;;4998096;28;20046;-78
2023/08/24 11:37:54;;;;;;;3.22;2.10;;;;;;;;;;4995760;28;20053;-76
2023/08/24 11:40:26;;;;;;;4.55;1.90;;;;;;;;;;5008339;28;20838;-79
2023/08/24 11:42:53;;;;;;;4.85;2.00;;;;;;;;;;5006732;28;20223;-76
2023/08/24 11:45:20;;;;;;;4.38;2.00;;;;;;;;;;5012946;28;20054;-77
2023/08/24 11:47:48;;;;;;;4.13;2.30;;;;;;;;;;4996950;28;21222;-80
2023/08/24 11:50:15;;;;;;;4.40;1.95;;;;;;;;;;4997118;28;20459;-79
2023/08/24 11:52:42;;;;;;;5.50;2.42;;;;;;;;;;4997761;28;20046;-79
2023/08/24 11:55:10;;;;;;;3.08;1.88;;;;;;;;;;5012459;28;20061;-79
2023/08/24 11:57:36;;;;;;;4.32;2.08;;;;;;;;;;5005600;28;20069;-78
2023/08/24 12:00:04;;;;;;;5.38;1.90;;;;;;;;;;4992670;28;20080;-78
2023/08/24 12:02:34;;;;;;;5.07;2.10;;;;;;;;;;5014224;28;20049;-78
2023/08/24 12:05:01;;;;;;;6.05;2.20;;;;;;;;;;5014845;28;20198;-79
2023/08/24 12:07:28;;;;;;;4.50;2.50;;;;;;;;;;5016114;28;20050;-77
2023/08/24 12:10:01;;;;;;;5.30;2.30;;;;;;;;;;5025895;28;20069;-78
2023/08/24 12:12:28;;;;;;;4.80;2.13;;;;;;;;;;5021485;28;20253;-79
2023/08/24 12:14:55;;;;;;;4.53;2.33;;;;;;;;;;5026942;28;20045;-79
2023/08/24 12:17:22;;;;;;;3.85;2.17;;;;;;;;;;5013550;28;20038;-79
2023/08/24 12:19:59;;;;;;;7.38;2.08;;;;;;;;;;5010489;28;20053;-78
2023/08/24 12:22:25;;;;;;;8.02;2.47;;;;;;;;;;5003080;28;20045;-77
2023/08/24 12:24:52;;;;;;;5.15;2.50;;;;;;;;;;5014551;28;20168;-78
2023/08/24 12:27:19;;;;;;;4.25;2.42;;;;;;;;;;5014325;28;20537;-76
2023/08/24 12:29:46;;;;;;;5.38;2.00;;;;;;;;;;5014770;28;20037;-76
2023/08/24 12:32:15;;;;;;;3.85;2.47;;;;;;;;;;5013219;28;20041;-78
2023/08/24 12:34:42;;;;;;;4.00;2.15;;;;;;;;;;5014336;28;20092;-80
2023/08/24 12:37:09;;;;;;;3.70;2.25;;;;;;;;;;5011023;28;20045;-79
2023/08/24 12:39:37;;;;;;;3.58;2.10;;;;;;;;;;5005136;28;20045;-79
2023/08/24 12:42:04;;;;;;;7.15;2.50;;;;;;;;;;5011778;28;20042;-79
2023/08/24 12:44:30;;;;;;;3.42;2.10;;;;;;;;;;5012509;28;20448;-78
2023/08/24 12:46:57;;;;;;;3.13;2.42;;;;;;;;;;5012049;28;20050;-77
2023/08/24 12:49:24;;;;;;;4.50;2.22;;;;;;;;;;5009149;28;20061;-80
2023/08/24 12:51:50;;;;;;;4.68;1.90;;;;;;;;;;5006720;28;20594;-79
2023/08/24 12:54:17;;;;;;;5.45;2.00;;;;;;;;;;5012575;28;20065;-79
2023/08/24 12:56:44;;;;;;;2.95;2.28;;;;;;;;;;5012733;28;20141;-80
2023/08/24 12:59:11;;;;;;;4.55;2.20;;;;;;;;;;5016097;28;20053;-79
2023/08/24 13:01:38;;;;;;;3.42;2.10;;;;;;;;;;5016888;28;20046;-78
2023/08/24 13:04:05;;;;;;;3.38;2.20;;;;;;;;;;5015911;28;20174;-79
2023/08/24 13:06:32;;;;;;;2.78;2.10;;;;;;;;;;5012123;28;20479;-80
2023/08/24 13:09:00;;;;;;;6.90;2.30;;;;;;;;;;5011822;28;20170;-80
2023/08/24 13:11:26;;;;;;;4.28;2.35;;;;;;;;;;5011321;28;20056;-80
2023/08/24 13:13:53;;;;;;;3.83;2.10;;;;;;;;;;5012783;28;20033;-79
2023/08/24 13:16:20;;;;;;;4.82;2.33;;;;;;;;;;5010348;28;20038;-79
2023/08/24 13:18:47;;;;;;;4.25;2.33;;;;;;;;;;4994943;28;20525;-79
2023/08/24 13:21:14;;;;;;;4.82;2.17;;;;;;;;;;5012661;28;20593;-77
2023/08/24 13:23:43;;;;;;;4.07;2.20;;;;;;;;;;5031039;28;20034;-78
2023/08/24 13:26:19;;;;;;;3.60;2.25;;;;;;;;;;5012566;28;20071;-77
2023/08/24 13:28:47;;;;;;;3.28;2.15;;;;;;;;;;5003159;28;20096;-78
2023/08/24 13:31:14;;;;;;;6.10;2.30;;;;;;;;;;5003033;28;20046;-76
2023/08/24 13:33:41;;;;;;;3.97;2.33;;;;;;;;;;5003946;28;20696;-80
2023/08/24 13:36:07;;;;;;;3.17;1.90;;;;;;;;;;5000815;28;20061;-78
2023/08/24 13:38:34;;;;;;;5.03;2.28;;;;;;;;;;4987463;28;20131;-77
2023/08/24 13:41:01;;;;;;;4.65;2.13;;;;;;;;;;5009567;28;20099;-78
2023/08/24 13:43:28;;;;;;;3.85;1.90;;;;;;;;;;5007061;28;20463;-79
2023/08/24 13:45:55;;;;;;;3.40;2.22;;;;;;;;;;5009504;28;20065;-78
2023/08/24 13:48:23;;;;;;;3.65;2.08;;;;;;;;;;5011341;28;20042;-79
2023/08/24 13:50:52;;;;;;;4.40;2.17;;;;;;;;;;5011627;28;20045;-79
2023/08/24 13:53:19;;;;;;;5.47;2.17;;;;;;;;;;5010267;28;20057;-78
2023/08/24 13:55:45;;;;;;;4.90;2.22;;;;;;;;;;5010811;28;20042;-78
2023/08/24 13:58:12;;;;;;;2.88;2.10;;;;;;;;;;4994347;28;20101;-77
2023/08/24 14:00:40;;;;;;;4.60;2.08;;;;;;;;;;4995013;28;20045;-79
2023/08/24 14:03:06;;;;;;;4.88;2.20;;;;;;;;;;5002508;28;20054;-78
2023/08/24 14:05:33;;;;;;;3.00;2.47;;;;;;;;;;4986832;28;20052;-79
2023/08/24 14:08:00;;;;;;;3.08;2.38;;;;;;;;;;5024793;28;20046;-78
2023/08/24 14:10:26;;;;;;;5.15;2.20;;;;;;;;;;5009126;28;20066;-79
2023/08/24 14:12:53;;;;;;;6.88;2.22;;;;;;;;;;5012467;28;20061;-79
2023/08/24 14:15:20;;;;;;;3.97;2.08;;;;;;;;;;5012228;28;20034;-78
2023/08/24 14:17:47;;;;;;;4.13;2.40;;;;;;;;;;5010485;28;20100;-78
2023/08/24 14:20:14;;;;;;;3.92;2.20;;;;;;;;;;5009928;28;20496;-78
2023/08/24 14:22:40;;;;;;;3.25;2.15;;;;;;;;;;5012696;28;20042;-78
2023/08/24 14:25:07;;;;;;;3.90;2.08;;;;;;;;;;5010005;28;20046;-79
2023/08/24 14:27:34;;;;;;;2.72;1.77;;;;;;;;;;5012011;28;20053;-79
2023/08/24 14:30:01;;;;;;;5.80;2.08;;;;;;;;;;5011651;28;20045;-77
2023/08/24 14:32:28;;;;;;;6.82;2.50;;;;;;;;;;5010882;28;20054;-79
2023/08/24 14:34:54;;;;;;;5.25;2.22;;;;;;;;;;5013548;28;20037;-77
2023/08/24 14:37:21;;;;;;;4.95;1.83;;;;;;;;;;5016727;28;20527;-76
2023/08/24 14:39:48;;;;;;;3.65;1.90;;;;;;;;;;5029222;28;20051;-77
2023/08/24 14:42:15;;;;;;;2.85;2.10;;;;;;;;;;4994511;28;20042;-79